< < Back
Terminal Aerodrome Forecast


Current Version              Previous Versions:   1  2  3  4  5  6  7  8  9  

Terminal Aerodrome Forecast

548
FTUS42 KFFC 050522
TAFMCN
TAF
KMCN 050522Z 0506/0606 12003KT P6SM SKC
     FM050700 00000KT P6SM SKC
     FM051600 10006KT P6SM FEW090
     FM060200 00000KT P6SM SKC=



Latest METAR

090
SAUS80 KWBC 050900 RRA
MTRMCN
METAR KMCN 050853Z AUTO 00000KT 10SM CLR 13/12 A3027 RMK AO2 SLP246
T01280122 55007 TSNO $


USA.gov is the U.S. government's official web portal to all federal, state and local government web resources and services.